PWSweather.com
Personal Weather Stations
Station Observations
PHMDWX
Perry Hall, MD 21236

Perry Hall, MD 21236

Lat: 39.418318, Lon: -76.490039

Elevation: 305

Station Type: Davis Vantage Pro

Latest ConditionsUpdated 8:30:02 PM EST Tuesday, Feb 21, 2017
Currently Today's Max Today's Min Today's Average
Temperature 46.4°F8.0°C 50.8°F10.4°C 34.9°F1.6°C 43.7°F6.5°C
Dew Point 34.5°F1.4°C 34.5°F1.4°C 15.0°F-9.4°C 24.5°F-4.2°C
Winds 1.8 mph SSE2.9 kmh SSE 9.6 mph SSE15.4 kmh SSE - 2.7 mph 4.3 kmh
Wind Gusts 3.0 mph4.8 kmh 16.0 mph25.7 kmh - -
Humidity 63% 63% 33% 47%
Pressure 30.14 in1020.7 mb 30.34 in1027.4 mb 30.14 in1020.7 mb -
Hour Temp Dew Point Humidity Winds Wind Gusts Pressure Precip Precip Rate Daily Precip Total
08:30 PM 46.4°F8.0°C 34.5°F1.4°C 63% 1.8 mph SSE2.9 kmh SSE 3.0 mph4.8 kmh 30.14 in1020.7 mb - 0.00 in0.0 mm 0.00 in0.0 mm
08:00 PM 47.0°F8.3°C 31.7°F-0.2°C 55% 2.7 mph SE4.3 kmh SE 6.0 mph9.7 kmh 30.15 in1021.0 mb - 0.00 in0.0 mm 0.00 in0.0 mm
07:30 PM 47.4°F8.6°C 30.6°F-0.8°C 52% 2.7 mph SE4.3 kmh SE 6.0 mph9.7 kmh 30.14 in1020.7 mb - 0.00 in0.0 mm 0.00 in0.0 mm
07:00 PM 47.3°F8.5°C 30.1°F-1.1°C 51% 1.5 mph SE2.4 kmh SE 4.0 mph6.4 kmh 30.15 in1021.0 mb - 0.00 in0.0 mm 0.00 in0.0 mm
06:30 PM 47.6°F8.7°C 30.3°F-0.9°C 51% 1.1 mph SE1.8 kmh SE 5.0 mph8.0 kmh 30.14 in1020.7 mb - 0.00 in0.0 mm 0.00 in0.0 mm
06:00 PM 48.2°F9.0°C 28.4°F-2.0°C 46% 2.4 mph SE3.9 kmh SE 3.0 mph4.8 kmh 30.14 in1020.7 mb - 0.00 in0.0 mm 0.00 in0.0 mm
05:30 PM 49.0°F9.4°C 30.1°F-1.1°C 48% 4.6 mph SSE7.4 kmh SSE 6.0 mph9.7 kmh 30.14 in1020.7 mb - 0.00 in0.0 mm 0.00 in0.0 mm
05:00 PM 49.5°F9.7°C 30.6°F-0.8°C 48% 4.2 mph SSE6.8 kmh SSE 5.0 mph8.0 kmh 30.15 in1021.0 mb - 0.00 in0.0 mm 0.00 in0.0 mm
04:30 PM 50.2°F10.1°C 29.1°F-1.6°C 44% 6.1 mph S9.8 kmh S 7.0 mph11.3 kmh 30.16 in1021.3 mb - 0.00 in0.0 mm 0.00 in0.0 mm
04:00 PM 50.4°F10.2°C 28.1°F-2.2°C 42% 7.5 mph SSE12.1 kmh SSE 11.0 mph17.7 kmh 30.17 in1021.7 mb - 0.00 in0.0 mm 0.00 in0.0 mm
03:30 PM 50.4°F10.2°C 30.9°F-0.6°C 47% 9.6 mph SSE15.4 kmh SSE 16.0 mph25.7 kmh 30.17 in1021.7 mb - 0.00 in0.0 mm 0.00 in0.0 mm
03:00 PM 50.2°F10.1°C 30.2°F-1.0°C 46% 6.9 mph SSE11.1 kmh SSE 11.0 mph17.7 kmh 30.18 in1022.0 mb - 0.00 in0.0 mm 0.00 in0.0 mm
02:30 PM 50.8°F10.4°C 29.1°F-1.6°C 43% 7.1 mph SE11.4 kmh SE 9.0 mph14.5 kmh 30.19 in1022.4 mb - 0.00 in0.0 mm 0.00 in0.0 mm
02:00 PM 49.8°F9.9°C 28.2°F-2.1°C 43% 6.0 mph SE9.7 kmh SE 10.0 mph16.1 kmh 30.20 in1022.7 mb - 0.00 in0.0 mm 0.00 in0.0 mm
01:30 PM 50.4°F10.2°C 29.3°F-1.5°C 44% 5.5 mph SE8.9 kmh SE 8.0 mph12.9 kmh 30.22 in1023.4 mb - 0.00 in0.0 mm 0.00 in0.0 mm
01:00 PM 48.8°F9.3°C 30.0°F-1.1°C 48% 1.8 mph ESE2.9 kmh ESE 5.0 mph8.0 kmh 30.24 in1024.0 mb - 0.00 in0.0 mm 0.00 in0.0 mm
12:30 PM 46.7°F8.2°C 30.5°F-0.8°C 53% 2.5 mph SE4.0 kmh SE 3.0 mph4.8 kmh 30.25 in1024.4 mb - 0.00 in0.0 mm 0.00 in0.0 mm
12:00 PM 47.3°F8.5°C 30.1°F-1.1°C 51% 1.7 mph SSE2.7 kmh SSE 5.0 mph8.0 kmh 30.26 in1024.7 mb - 0.00 in0.0 mm 0.00 in0.0 mm
11:30 AM 48.1°F8.9°C 29.3°F-1.5°C 48% 4.9 mph SE7.9 kmh SE 9.0 mph14.5 kmh 30.29 in1025.7 mb - 0.00 in0.0 mm 0.00 in0.0 mm
11:00 AM 47.7°F8.7°C 29.5°F-1.4°C 49% 2.7 mph E4.3 kmh E 7.0 mph11.3 kmh 30.30 in1026.1 mb - 0.00 in0.0 mm 0.00 in0.0 mm
10:30 AM 45.0°F7.2°C 28.4°F-2.0°C 52% 0.2 mph SE0.3 kmh SE 6.0 mph9.7 kmh 30.31 in1026.4 mb - 0.00 in0.0 mm 0.00 in0.0 mm
10:00 AM 41.8°F5.4°C 26.4°F-3.1°C 54% 0.7 mph E1.1 kmh E 2.0 mph3.2 kmh 30.31 in1026.4 mb - 0.00 in0.0 mm 0.00 in0.0 mm
09:30 AM 41.2°F5.1°C 24.4°F-4.2°C 51% 1.1 mph E1.8 kmh E 1.0 mph1.6 kmh 30.32 in1026.8 mb - 0.00 in0.0 mm 0.00 in0.0 mm
09:00 AM 40.9°F4.9°C 23.2°F-4.9°C 49% 2.6 mph E4.2 kmh E 5.0 mph8.0 kmh 30.33 in1027.1 mb - 0.00 in0.0 mm 0.00 in0.0 mm
08:30 AM 38.8°F3.8°C 20.7°F-6.3°C 48% 7.1 mph NE11.4 kmh NE 9.0 mph14.5 kmh 30.33 in1027.1 mb - 0.00 in0.0 mm 0.00 in0.0 mm
08:00 AM 35.2°F1.8°C 19.3°F-7.1°C 52% Calm Calm -- 30.34 in1027.4 mb - 0.00 in0.0 mm 0.00 in0.0 mm
07:30 AM 34.9°F1.6°C 19.9°F-6.7°C 54% 0.2 mph E0.3 kmh E 1.0 mph1.6 kmh 30.34 in1027.4 mb - 0.00 in0.0 mm 0.00 in0.0 mm
07:00 AM 35.3°F1.8°C 18.5°F-7.5°C 50% Calm Calm -- 30.33 in1027.1 mb - 0.00 in0.0 mm 0.00 in0.0 mm
06:30 AM 35.9°F2.2°C 18.1°F-7.7°C 48% Calm Calm -- 30.32 in1026.8 mb - 0.00 in0.0 mm 0.00 in0.0 mm
06:00 AM 35.5°F1.9°C 19.6°F-6.9°C 52% Calm Calm -- 30.33 in1027.1 mb - 0.00 in0.0 mm 0.00 in0.0 mm
05:30 AM 35.8°F2.1°C 18.0°F-7.8°C 48% Calm Calm -- 30.33 in1027.1 mb - 0.00 in0.0 mm 0.00 in0.0 mm
05:00 AM 35.2°F1.8°C 19.4°F-7.0°C 52% 0.2 mph E0.3 kmh E 1.0 mph1.6 kmh 30.31 in1026.4 mb - 0.00 in0.0 mm 0.00 in0.0 mm
04:30 AM 36.2°F2.3°C 19.8°F-6.8°C 51% Calm Calm -- 30.31 in1026.4 mb - 0.00 in0.0 mm 0.00 in0.0 mm
04:00 AM 37.8°F3.2°C 17.8°F-7.9°C 44% Calm Calm -- 30.31 in1026.4 mb - 0.00 in0.0 mm 0.00 in0.0 mm
03:30 AM 39.3°F4.1°C 17.0°F-8.3°C 40% 1.0 mph ESE1.6 kmh ESE 3.0 mph4.8 kmh 30.31 in1026.4 mb - 0.00 in0.0 mm 0.00 in0.0 mm
03:00 AM 39.9°F4.4°C 16.3°F-8.7°C 38% 2.4 mph E3.9 kmh E 8.0 mph12.9 kmh 30.29 in1025.7 mb - 0.00 in0.0 mm 0.00 in0.0 mm
02:30 AM 40.9°F4.9°C 15.9°F-8.9°C 36% 0.7 mph E1.1 kmh E 2.0 mph3.2 kmh 30.30 in1026.1 mb - 0.00 in0.0 mm 0.00 in0.0 mm
02:00 AM 41.3°F5.2°C 15.0°F-9.4°C 34% 0.9 mph E1.4 kmh E 4.0 mph6.4 kmh 30.29 in1025.7 mb - 0.00 in0.0 mm 0.00 in0.0 mm
01:30 AM 42.2°F5.7°C 15.8°F-9.0°C 34% 3.1 mph ENE5.0 kmh ENE 6.0 mph9.7 kmh 30.29 in1025.7 mb - 0.00 in0.0 mm 0.00 in0.0 mm
01:00 AM 42.9°F6.1°C 15.7°F-9.1°C 33% 3.4 mph NE5.5 kmh NE 5.0 mph8.0 kmh 30.29 in1025.7 mb - 0.00 in0.0 mm 0.00 in0.0 mm
12:30 AM 43.2°F6.2°C 17.4°F-8.1°C 35% 4.7 mph NE7.6 kmh NE 6.0 mph9.7 kmh 30.29 in1025.7 mb - 0.00 in0.0 mm 0.00 in0.0 mm
12:00 AM 43.8°F6.6°C 20.4°F-6.4°C 39% 2.1 mph NNE3.4 kmh NNE 2.0 mph3.2 kmh 30.30 in1026.1 mb - 0.00 in0.0 mm 0.00 in0.0 mm